sensor_id;sensor_type;location;lat;lon;timestamp;P1;durP1;ratioP1;P2;durP2;ratioP2
1703;SDS011;849;48.780;9.216;2023-02-19T00:02:24;42.70;;;1.90;;
1703;SDS011;849;48.780;9.216;2023-02-19T00:04:50;42.60;;;2.10;;
1703;SDS011;849;48.780;9.216;2023-02-19T00:07:15;42.63;;;1.97;;
1703;SDS011;849;48.780;9.216;2023-02-19T00:09:41;42.67;;;2.20;;
1703;SDS011;849;48.780;9.216;2023-02-19T00:12:07;42.80;;;2.10;;
1703;SDS011;849;48.780;9.216;2023-02-19T00:14:32;42.83;;;2.10;;
1703;SDS011;849;48.780;9.216;2023-02-19T00:16:58;42.70;;;2.00;;
1703;SDS011;849;48.780;9.216;2023-02-19T00:19:23;42.67;;;2.00;;
1703;SDS011;849;48.780;9.216;2023-02-19T00:21:50;42.77;;;2.07;;
1703;SDS011;849;48.780;9.216;2023-02-19T00:24:17;42.77;;;2.10;;
1703;SDS011;849;48.780;9.216;2023-02-19T00:26:43;42.80;;;2.10;;
1703;SDS011;849;48.780;9.216;2023-02-19T00:29:28;42.80;;;2.00;;
1703;SDS011;849;48.780;9.216;2023-02-19T00:31:53;42.70;;;2.20;;
1703;SDS011;849;48.780;9.216;2023-02-19T00:34:19;42.83;;;2.20;;
1703;SDS011;849;48.780;9.216;2023-02-19T00:36:44;42.73;;;1.97;;
1703;SDS011;849;48.780;9.216;2023-02-19T00:39:12;42.50;;;2.00;;
1703;SDS011;849;48.780;9.216;2023-02-19T00:41:39;42.67;;;2.00;;
1703;SDS011;849;48.780;9.216;2023-02-19T00:44:06;42.60;;;2.07;;
1703;SDS011;849;48.780;9.216;2023-02-19T00:46:37;42.50;;;2.00;;
1703;SDS011;849;48.780;9.216;2023-02-19T00:49:06;42.43;;;2.10;;
1703;SDS011;849;48.780;9.216;2023-02-19T00:51:34;42.37;;;1.97;;
1703;SDS011;849;48.780;9.216;2023-02-19T00:54:02;42.30;;;2.00;;
1703;SDS011;849;48.780;9.216;2023-02-19T00:56:29;42.00;;;1.87;;
1703;SDS011;849;48.780;9.216;2023-02-19T00:58:55;42.17;;;1.90;;
1703;SDS011;849;48.780;9.216;2023-02-19T01:01:20;41.80;;;1.97;;
1703;SDS011;849;48.780;9.216;2023-02-19T01:03:46;41.77;;;1.87;;
1703;SDS011;849;48.780;9.216;2023-02-19T01:06:13;41.87;;;1.97;;
1703;SDS011;849;48.780;9.216;2023-02-19T01:08:40;41.60;;;2.00;;
1703;SDS011;849;48.780;9.216;2023-02-19T01:11:07;42.03;;;2.03;;
1703;SDS011;849;48.780;9.216;2023-02-19T01:13:33;41.80;;;2.00;;
1703;SDS011;849;48.780;9.216;2023-02-19T01:16:03;41.83;;;2.00;;
1703;SDS011;849;48.780;9.216;2023-02-19T01:18:33;41.90;;;2.03;;
1703;SDS011;849;48.780;9.216;2023-02-19T01:21:03;43.60;;;4.10;;
1703;SDS011;849;48.780;9.216;2023-02-19T01:23:39;42.50;;;2.10;;
1703;SDS011;849;48.780;9.216;2023-02-19T01:26:06;42.50;;;1.90;;
1703;SDS011;849;48.780;9.216;2023-02-19T01:28:32;42.70;;;2.20;;
1703;SDS011;849;48.780;9.216;2023-02-19T01:31:06;42.73;;;2.00;;
1703;SDS011;849;48.780;9.216;2023-02-19T01:33:33;42.60;;;2.10;;
1703;SDS011;849;48.780;9.216;2023-02-19T01:36:01;42.50;;;1.90;;
1703;SDS011;849;48.780;9.216;2023-02-19T01:38:28;42.77;;;2.10;;
1703;SDS011;849;48.780;9.216;2023-02-19T01:40:57;42.60;;;1.90;;
1703;SDS011;849;48.780;9.216;2023-02-19T01:43:27;42.77;;;1.80;;
1703;SDS011;849;48.780;9.216;2023-02-19T01:45:55;42.77;;;1.90;;
1703;SDS011;849;48.780;9.216;2023-02-19T01:48:31;43.07;;;2.20;;
1703;SDS011;849;48.780;9.216;2023-02-19T01:51:04;42.80;;;1.97;;
1703;SDS011;849;48.780;9.216;2023-02-19T01:53:36;42.80;;;1.90;;
1703;SDS011;849;48.780;9.216;2023-02-19T01:56:05;42.70;;;2.00;;
1703;SDS011;849;48.780;9.216;2023-02-19T01:58:33;43.23;;;2.07;;
1703;SDS011;849;48.780;9.216;2023-02-19T02:01:00;43.23;;;2.30;;
1703;SDS011;849;48.780;9.216;2023-02-19T02:03:28;43.10;;;2.00;;
1703;SDS011;849;48.780;9.216;2023-02-19T02:05:55;43.07;;;2.20;;
1703;SDS011;849;48.780;9.216;2023-02-19T02:08:26;43.10;;;2.00;;
1703;SDS011;849;48.780;9.216;2023-02-19T02:11:10;43.07;;;2.17;;
1703;SDS011;849;48.780;9.216;2023-02-19T02:13:36;43.20;;;2.07;;
1703;SDS011;849;48.780;9.216;2023-02-19T02:19:28;43.17;;;2.10;;
1703;SDS011;849;48.780;9.216;2023-02-19T02:22:03;44.67;;;4.23;;
1703;SDS011;849;48.780;9.216;2023-02-19T02:27:20;43.23;;;2.20;;
1703;SDS011;849;48.780;9.216;2023-02-19T02:33:05;42.97;;;2.10;;
1703;SDS011;849;48.780;9.216;2023-02-19T02:35:47;42.70;;;2.20;;
1703;SDS011;849;48.780;9.216;2023-02-19T02:38:20;42.80;;;2.53;;
1703;SDS011;849;48.780;9.216;2023-02-19T02:40:50;42.47;;;2.00;;
1703;SDS011;849;48.780;9.216;2023-02-19T02:43:17;42.60;;;2.00;;
1703;SDS011;849;48.780;9.216;2023-02-19T02:45:43;42.30;;;1.90;;
1703;SDS011;849;48.780;9.216;2023-02-19T02:51:15;42.30;;;1.97;;
1703;SDS011;849;48.780;9.216;2023-02-19T02:54:01;42.27;;;1.90;;
1703;SDS011;849;48.780;9.216;2023-02-19T02:56:50;42.20;;;1.90;;
1703;SDS011;849;48.780;9.216;2023-02-19T02:59:18;42.20;;;2.00;;
1703;SDS011;849;48.780;9.216;2023-02-19T03:07:42;42.50;;;2.00;;
1703;SDS011;849;48.780;9.216;2023-02-19T03:10:18;42.50;;;2.10;;
1703;SDS011;849;48.780;9.216;2023-02-19T03:12:47;42.57;;;2.00;;
1703;SDS011;849;48.780;9.216;2023-02-19T03:15:37;42.37;;;1.90;;
1703;SDS011;849;48.780;9.216;2023-02-19T03:18:45;42.57;;;2.10;;
1703;SDS011;849;48.780;9.216;2023-02-19T03:21:34;42.27;;;2.20;;
1703;SDS011;849;48.780;9.216;2023-02-19T03:24:03;42.00;;;2.00;;
1703;SDS011;849;48.780;9.216;2023-02-19T03:26:48;42.10;;;2.00;;
1703;SDS011;849;48.780;9.216;2023-02-19T03:29:19;42.10;;;2.03;;
1703;SDS011;849;48.780;9.216;2023-02-19T03:31:47;42.00;;;1.90;;
1703;SDS011;849;48.780;9.216;2023-02-19T03:34:17;41.70;;;1.90;;
1703;SDS011;849;48.780;9.216;2023-02-19T03:36:53;42.13;;;2.00;;
1703;SDS011;849;48.780;9.216;2023-02-19T03:39:24;41.60;;;1.90;;
1703;SDS011;849;48.780;9.216;2023-02-19T03:47:50;41.73;;;1.90;;
1703;SDS011;849;48.780;9.216;2023-02-19T03:50:09;41.70;;;2.03;;
1703;SDS011;849;48.780;9.216;2023-02-19T03:52:58;41.40;;;1.80;;
1703;SDS011;849;48.780;9.216;2023-02-19T03:58:50;40.90;;;1.87;;
1703;SDS011;849;48.780;9.216;2023-02-19T04:01:25;40.87;;;1.53;;
1703;SDS011;849;48.780;9.216;2023-02-19T04:04:17;40.87;;;1.60;;
1703;SDS011;849;48.780;9.216;2023-02-19T04:06:52;40.80;;;1.63;;
1703;SDS011;849;48.780;9.216;2023-02-19T04:09:20;40.70;;;1.60;;
1703;SDS011;849;48.780;9.216;2023-02-19T04:11:47;40.80;;;1.67;;
1703;SDS011;849;48.780;9.216;2023-02-19T04:14:16;40.83;;;1.70;;
1703;SDS011;849;48.780;9.216;2023-02-19T04:16:48;40.77;;;1.60;;
1703;SDS011;849;48.780;9.216;2023-02-19T04:19:20;40.87;;;1.70;;
1703;SDS011;849;48.780;9.216;2023-02-19T04:21:48;40.80;;;1.60;;
1703;SDS011;849;48.780;9.216;2023-02-19T04:24:21;40.77;;;1.60;;
1703;SDS011;849;48.780;9.216;2023-02-19T04:26:52;40.77;;;1.70;;
1703;SDS011;849;48.780;9.216;2023-02-19T04:29:19;40.27;;;1.47;;
1703;SDS011;849;48.780;9.216;2023-02-19T04:31:45;40.27;;;1.60;;
1703;SDS011;849;48.780;9.216;2023-02-19T04:34:11;40.20;;;1.50;;
1703;SDS011;849;48.780;9.216;2023-02-19T04:36:37;40.37;;;1.60;;
1703;SDS011;849;48.780;9.216;2023-02-19T04:39:02;40.10;;;1.50;;
1703;SDS011;849;48.780;9.216;2023-02-19T04:41:28;40.10;;;1.50;;
1703;SDS011;849;48.780;9.216;2023-02-19T04:43:53;41.10;;;2.13;;
1703;SDS011;849;48.780;9.216;2023-02-19T04:46:19;39.93;;;1.50;;
1703;SDS011;849;48.780;9.216;2023-02-19T04:48:45;40.23;;;1.50;;
1703;SDS011;849;48.780;9.216;2023-02-19T04:51:10;39.90;;;1.43;;
1703;SDS011;849;48.780;9.216;2023-02-19T04:53:36;40.10;;;1.60;;
1703;SDS011;849;48.780;9.216;2023-02-19T04:56:05;39.80;;;1.40;;
1703;SDS011;849;48.780;9.216;2023-02-19T04:58:36;40.17;;;1.40;;
1703;SDS011;849;48.780;9.216;2023-02-19T05:01:02;40.10;;;1.50;;
1703;SDS011;849;48.780;9.216;2023-02-19T05:03:28;40.00;;;1.60;;
1703;SDS011;849;48.780;9.216;2023-02-19T05:05:54;39.83;;;1.50;;
1703;SDS011;849;48.780;9.216;2023-02-19T05:08:20;39.90;;;1.60;;
1703;SDS011;849;48.780;9.216;2023-02-19T05:10:46;39.73;;;1.60;;
1703;SDS011;849;48.780;9.216;2023-02-19T05:13:12;39.90;;;1.47;;
1703;SDS011;849;48.780;9.216;2023-02-19T05:15:37;39.90;;;1.60;;
1703;SDS011;849;48.780;9.216;2023-02-19T05:18:03;39.97;;;1.50;;
1703;SDS011;849;48.780;9.216;2023-02-19T05:20:29;40.13;;;1.60;;
1703;SDS011;849;48.780;9.216;2023-02-19T05:22:54;40.50;;;1.70;;
1703;SDS011;849;48.780;9.216;2023-02-19T05:25:20;40.40;;;1.70;;
1703;SDS011;849;48.780;9.216;2023-02-19T05:27:46;40.03;;;1.60;;
1703;SDS011;849;48.780;9.216;2023-02-19T05:30:11;40.20;;;1.70;;
1703;SDS011;849;48.780;9.216;2023-02-19T05:32:37;40.37;;;1.60;;
1703;SDS011;849;48.780;9.216;2023-02-19T05:35:02;40.20;;;1.50;;
1703;SDS011;849;48.780;9.216;2023-02-19T05:37:28;40.77;;;1.90;;
1703;SDS011;849;48.780;9.216;2023-02-19T05:39:54;40.60;;;1.70;;
1703;SDS011;849;48.780;9.216;2023-02-19T05:42:20;40.70;;;1.60;;
1703;SDS011;849;48.780;9.216;2023-02-19T05:44:45;40.37;;;1.40;;
1703;SDS011;849;48.780;9.216;2023-02-19T05:47:11;40.37;;;1.60;;
1703;SDS011;849;48.780;9.216;2023-02-19T05:49:36;40.57;;;1.60;;
1703;SDS011;849;48.780;9.216;2023-02-19T05:52:02;41.50;;;2.10;;
1703;SDS011;849;48.780;9.216;2023-02-19T05:54:28;40.47;;;1.40;;
1703;SDS011;849;48.780;9.216;2023-02-19T05:56:55;40.57;;;1.63;;
1703;SDS011;849;48.780;9.216;2023-02-19T05:59:22;40.60;;;1.60;;
1703;SDS011;849;48.780;9.216;2023-02-19T06:01:50;40.57;;;1.60;;
1703;SDS011;849;48.780;9.216;2023-02-19T06:04:16;40.70;;;1.60;;
1703;SDS011;849;48.780;9.216;2023-02-19T06:06:44;41.17;;;1.83;;
1703;SDS011;849;48.780;9.216;2023-02-19T06:09:10;41.37;;;1.93;;
1703;SDS011;849;48.780;9.216;2023-02-19T06:11:36;41.07;;;1.70;;
1703;SDS011;849;48.780;9.216;2023-02-19T06:14:02;41.40;;;1.90;;
1703;SDS011;849;48.780;9.216;2023-02-19T06:16:28;40.47;;;1.60;;
1703;SDS011;849;48.780;9.216;2023-02-19T06:18:56;40.40;;;1.50;;
1703;SDS011;849;48.780;9.216;2023-02-19T06:21:22;41.30;;;3.00;;
1703;SDS011;849;48.780;9.216;2023-02-19T06:23:47;40.60;;;1.50;;
1703;SDS011;849;48.780;9.216;2023-02-19T06:26:14;40.27;;;1.60;;
1703;SDS011;849;48.780;9.216;2023-02-19T06:28:42;40.60;;;1.80;;
1703;SDS011;849;48.780;9.216;2023-02-19T06:31:08;40.30;;;1.60;;
1703;SDS011;849;48.780;9.216;2023-02-19T06:33:36;40.37;;;1.60;;
1703;SDS011;849;48.780;9.216;2023-02-19T06:36:05;40.27;;;1.50;;
1703;SDS011;849;48.780;9.216;2023-02-19T06:38:34;41.20;;;2.00;;
1703;SDS011;849;48.780;9.216;2023-02-19T06:41:00;36.57;;;1.20;;
1703;SDS011;849;48.780;9.216;2023-02-19T06:43:26;36.47;;;1.10;;
1703;SDS011;849;48.780;9.216;2023-02-19T06:45:52;36.67;;;1.03;;
1703;SDS011;849;48.780;9.216;2023-02-19T06:48:18;36.47;;;1.10;;
1703;SDS011;849;48.780;9.216;2023-02-19T06:50:44;36.43;;;1.07;;
1703;SDS011;849;48.780;9.216;2023-02-19T06:53:09;36.13;;;1.00;;
1703;SDS011;849;48.780;9.216;2023-02-19T06:55:36;36.17;;;1.10;;
1703;SDS011;849;48.780;9.216;2023-02-19T06:58:04;36.07;;;1.10;;
1703;SDS011;849;48.780;9.216;2023-02-19T07:00:30;36.17;;;1.10;;
1703;SDS011;849;48.780;9.216;2023-02-19T07:02:56;36.03;;;1.00;;
1703;SDS011;849;48.780;9.216;2023-02-19T07:05:22;35.97;;;1.03;;
1703;SDS011;849;48.780;9.216;2023-02-19T07:07:47;36.00;;;1.00;;
1703;SDS011;849;48.780;9.216;2023-02-19T07:10:14;35.77;;;1.00;;
1703;SDS011;849;48.780;9.216;2023-02-19T07:12:40;36.07;;;1.10;;
1703;SDS011;849;48.780;9.216;2023-02-19T07:15:05;35.90;;;1.00;;
1703;SDS011;849;48.780;9.216;2023-02-19T07:17:32;36.03;;;1.10;;
1703;SDS011;849;48.780;9.216;2023-02-19T07:19:58;36.03;;;1.20;;
1703;SDS011;849;48.780;9.216;2023-02-19T07:22:24;36.03;;;1.20;;
1703;SDS011;849;48.780;9.216;2023-02-19T07:24:50;36.10;;;1.10;;
1703;SDS011;849;48.780;9.216;2023-02-19T07:27:15;36.10;;;1.10;;
1703;SDS011;849;48.780;9.216;2023-02-19T07:29:41;36.13;;;1.10;;
1703;SDS011;849;48.780;9.216;2023-02-19T07:32:06;36.03;;;1.10;;
1703;SDS011;849;48.780;9.216;2023-02-19T07:34:32;35.87;;;1.00;;
1703;SDS011;849;48.780;9.216;2023-02-19T07:36:58;35.73;;;1.00;;
1703;SDS011;849;48.780;9.216;2023-02-19T07:39:24;38.20;;;1.10;;
1703;SDS011;849;48.780;9.216;2023-02-19T07:41:49;35.70;;;1.00;;
1703;SDS011;849;48.780;9.216;2023-02-19T07:44:15;35.90;;;1.00;;
1703;SDS011;849;48.780;9.216;2023-02-19T07:46:41;35.73;;;1.10;;
1703;SDS011;849;48.780;9.216;2023-02-19T07:49:07;35.67;;;1.00;;
1703;SDS011;849;48.780;9.216;2023-02-19T07:51:33;35.37;;;1.00;;
1703;SDS011;849;48.780;9.216;2023-02-19T07:53:59;35.43;;;1.00;;
1703;SDS011;849;48.780;9.216;2023-02-19T07:56:24;35.27;;;1.10;;
1703;SDS011;849;48.780;9.216;2023-02-19T07:58:50;35.43;;;1.00;;
1703;SDS011;849;48.780;9.216;2023-02-19T08:01:16;35.63;;;1.00;;
1703;SDS011;849;48.780;9.216;2023-02-19T08:03:43;35.27;;;1.00;;
1703;SDS011;849;48.780;9.216;2023-02-19T08:06:10;35.37;;;1.00;;
1703;SDS011;849;48.780;9.216;2023-02-19T08:08:36;35.37;;;1.00;;
1703;SDS011;849;48.780;9.216;2023-02-19T08:11:04;34.97;;;0.90;;
1703;SDS011;849;48.780;9.216;2023-02-19T08:13:49;35.50;;;1.00;;
1703;SDS011;849;48.780;9.216;2023-02-19T08:16:16;34.73;;;0.90;;
1703;SDS011;849;48.780;9.216;2023-02-19T08:18:44;35.33;;;1.00;;
1703;SDS011;849;48.780;9.216;2023-02-19T08:21:11;35.30;;;1.00;;
1703;SDS011;849;48.780;9.216;2023-02-19T08:23:37;34.97;;;1.00;;
1703;SDS011;849;48.780;9.216;2023-02-19T08:26:03;35.20;;;1.30;;
1703;SDS011;849;48.780;9.216;2023-02-19T08:28:30;34.90;;;1.00;;
1703;SDS011;849;48.780;9.216;2023-02-19T08:31:00;34.87;;;0.90;;
1703;SDS011;849;48.780;9.216;2023-02-19T08:33:27;34.77;;;0.90;;
1703;SDS011;849;48.780;9.216;2023-02-19T08:35:53;34.77;;;1.10;;
1703;SDS011;849;48.780;9.216;2023-02-19T08:38:18;34.97;;;0.90;;
1703;SDS011;849;48.780;9.216;2023-02-19T08:40:44;37.30;;;0.90;;
1703;SDS011;849;48.780;9.216;2023-02-19T08:43:13;35.00;;;0.90;;
1703;SDS011;849;48.780;9.216;2023-02-19T08:45:41;34.93;;;0.97;;
1703;SDS011;849;48.780;9.216;2023-02-19T08:48:08;35.03;;;1.00;;
1703;SDS011;849;48.780;9.216;2023-02-19T08:50:34;34.93;;;1.00;;
1703;SDS011;849;48.780;9.216;2023-02-19T08:53:01;34.87;;;0.90;;
1703;SDS011;849;48.780;9.216;2023-02-19T08:55:28;35.00;;;0.90;;
1703;SDS011;849;48.780;9.216;2023-02-19T08:57:53;35.00;;;1.00;;
1703;SDS011;849;48.780;9.216;2023-02-19T09:00:19;34.87;;;0.90;;
1703;SDS011;849;48.780;9.216;2023-02-19T09:02:45;34.87;;;0.90;;
1703;SDS011;849;48.780;9.216;2023-02-19T09:05:11;34.93;;;0.90;;
1703;SDS011;849;48.780;9.216;2023-02-19T09:07:38;34.90;;;0.90;;
1703;SDS011;849;48.780;9.216;2023-02-19T09:10:04;34.87;;;0.90;;
1703;SDS011;849;48.780;9.216;2023-02-19T09:12:30;35.27;;;1.33;;
1703;SDS011;849;48.780;9.216;2023-02-19T09:14:57;35.17;;;0.90;;
1703;SDS011;849;48.780;9.216;2023-02-19T09:17:24;35.03;;;1.00;;
1703;SDS011;849;48.780;9.216;2023-02-19T09:19:49;36.40;;;1.00;;
1703;SDS011;849;48.780;9.216;2023-02-19T09:22:15;35.27;;;1.00;;
1703;SDS011;849;48.780;9.216;2023-02-19T09:24:41;35.17;;;0.90;;
1703;SDS011;849;48.780;9.216;2023-02-19T09:27:07;35.40;;;0.93;;
1703;SDS011;849;48.780;9.216;2023-02-19T09:29:34;34.53;;;0.90;;
1703;SDS011;849;48.780;9.216;2023-02-19T09:32:00;34.90;;;1.10;;
1703;SDS011;849;48.780;9.216;2023-02-19T09:34:26;34.97;;;0.90;;
1703;SDS011;849;48.780;9.216;2023-02-19T09:36:52;34.87;;;1.00;;
1703;SDS011;849;48.780;9.216;2023-02-19T09:39:19;34.73;;;0.90;;
1703;SDS011;849;48.780;9.216;2023-02-19T09:41:46;34.57;;;1.10;;
1703;SDS011;849;48.780;9.216;2023-02-19T09:44:24;34.80;;;1.10;;
1703;SDS011;849;48.780;9.216;2023-02-19T09:46:54;34.97;;;1.20;;
1703;SDS011;849;48.780;9.216;2023-02-19T09:49:28;35.20;;;2.90;;
1703;SDS011;849;48.780;9.216;2023-02-19T09:52:08;34.73;;;1.10;;
1703;SDS011;849;48.780;9.216;2023-02-19T09:54:38;34.53;;;0.90;;
1703;SDS011;849;48.780;9.216;2023-02-19T09:57:08;34.53;;;1.00;;
1703;SDS011;849;48.780;9.216;2023-02-19T09:59:43;34.67;;;0.90;;
1703;SDS011;849;48.780;9.216;2023-02-19T10:02:17;34.57;;;1.00;;
1703;SDS011;849;48.780;9.216;2023-02-19T10:04:46;34.53;;;0.90;;
1703;SDS011;849;48.780;9.216;2023-02-19T10:07:13;34.77;;;1.20;;
1703;SDS011;849;48.780;9.216;2023-02-19T10:09:44;34.57;;;0.90;;
1703;SDS011;849;48.780;9.216;2023-02-19T10:12:15;34.30;;;0.83;;
1703;SDS011;849;48.780;9.216;2023-02-19T10:14:46;34.50;;;1.00;;
1703;SDS011;849;48.780;9.216;2023-02-19T10:17:26;34.17;;;0.80;;
1703;SDS011;849;48.780;9.216;2023-02-19T10:19:54;34.07;;;0.90;;
1703;SDS011;849;48.780;9.216;2023-02-19T10:22:22;34.10;;;0.90;;
1703;SDS011;849;48.780;9.216;2023-02-19T10:24:49;34.17;;;0.90;;
1703;SDS011;849;48.780;9.216;2023-02-19T10:27:18;34.00;;;0.90;;
1703;SDS011;849;48.780;9.216;2023-02-19T10:29:45;33.90;;;0.90;;
1703;SDS011;849;48.780;9.216;2023-02-19T10:32:19;34.00;;;0.90;;
1703;SDS011;849;48.780;9.216;2023-02-19T10:35:07;33.87;;;0.90;;
1703;SDS011;849;48.780;9.216;2023-02-19T10:37:34;34.07;;;0.90;;
1703;SDS011;849;48.780;9.216;2023-02-19T10:40:25;34.03;;;0.90;;
1703;SDS011;849;48.780;9.216;2023-02-19T10:42:53;33.97;;;0.90;;
1703;SDS011;849;48.780;9.216;2023-02-19T10:45:32;34.03;;;0.90;;
1703;SDS011;849;48.780;9.216;2023-02-19T10:48:20;34.03;;;1.00;;
1703;SDS011;849;48.780;9.216;2023-02-19T10:50:52;34.07;;;0.87;;
1703;SDS011;849;48.780;9.216;2023-02-19T10:53:23;33.87;;;0.90;;
1703;SDS011;849;48.780;9.216;2023-02-19T10:56:11;34.00;;;0.90;;
1703;SDS011;849;48.780;9.216;2023-02-19T10:58:48;34.40;;;1.00;;
1703;SDS011;849;48.780;9.216;2023-02-19T11:03:47;34.07;;;0.90;;
1703;SDS011;849;48.780;9.216;2023-02-19T11:06:15;33.97;;;1.00;;
1703;SDS011;849;48.780;9.216;2023-02-19T11:11:24;34.00;;;1.17;;
1703;SDS011;849;48.780;9.216;2023-02-19T11:14:03;34.17;;;1.10;;
1703;SDS011;849;48.780;9.216;2023-02-19T11:16:46;33.83;;;1.00;;
1703;SDS011;849;48.780;9.216;2023-02-19T11:19:35;33.77;;;0.90;;
1703;SDS011;849;48.780;9.216;2023-02-19T11:25:02;33.97;;;0.90;;
1703;SDS011;849;48.780;9.216;2023-02-19T11:27:31;33.97;;;0.93;;
1703;SDS011;849;48.780;9.216;2023-02-19T11:33:01;34.07;;;0.90;;
1703;SDS011;849;48.780;9.216;2023-02-19T11:35:46;34.03;;;0.90;;
1703;SDS011;849;48.780;9.216;2023-02-19T11:38:18;34.00;;;0.80;;
1703;SDS011;849;48.780;9.216;2023-02-19T11:43:33;34.20;;;0.80;;
1703;SDS011;849;48.780;9.216;2023-02-19T12:00:00;33.77;;;0.87;;
1703;SDS011;849;48.780;9.216;2023-02-19T12:02:44;33.90;;;0.80;;
1703;SDS011;849;48.780;9.216;2023-02-19T12:05:22;33.87;;;0.80;;
1703;SDS011;849;48.780;9.216;2023-02-19T12:10:56;34.00;;;0.83;;
1703;SDS011;849;48.780;9.216;2023-02-19T12:16:10;33.93;;;0.80;;
1703;SDS011;849;48.780;9.216;2023-02-19T12:18:49;33.97;;;0.80;;
1703;SDS011;849;48.780;9.216;2023-02-19T12:21:40;33.83;;;0.80;;
1703;SDS011;849;48.780;9.216;2023-02-19T12:38:07;33.93;;;0.90;;
1703;SDS011;849;48.780;9.216;2023-02-19T12:43:23;33.93;;;0.90;;
1703;SDS011;849;48.780;9.216;2023-02-19T12:45:54;33.73;;;0.90;;
1703;SDS011;849;48.780;9.216;2023-02-19T12:50:58;33.67;;;0.80;;
1703;SDS011;849;48.780;9.216;2023-02-19T12:53:36;33.60;;;0.80;;
1703;SDS011;849;48.780;9.216;2023-02-19T12:56:09;33.77;;;0.80;;
1703;SDS011;849;48.780;9.216;2023-02-19T12:59:03;34.30;;;1.03;;
1703;SDS011;849;48.780;9.216;2023-02-19T13:01:56;33.83;;;0.90;;
1703;SDS011;849;48.780;9.216;2023-02-19T13:04:36;33.87;;;0.90;;
1703;SDS011;849;48.780;9.216;2023-02-19T13:09:51;33.93;;;0.83;;
1703;SDS011;849;48.780;9.216;2023-02-19T13:12:23;33.70;;;0.90;;
1703;SDS011;849;48.780;9.216;2023-02-19T13:15:02;33.77;;;0.90;;
1703;SDS011;849;48.780;9.216;2023-02-19T13:17:45;33.80;;;0.90;;
1703;SDS011;849;48.780;9.216;2023-02-19T13:20:22;33.87;;;0.90;;
1703;SDS011;849;48.780;9.216;2023-02-19T13:37:03;33.77;;;0.90;;
1703;SDS011;849;48.780;9.216;2023-02-19T13:39:29;33.87;;;0.90;;
1703;SDS011;849;48.780;9.216;2023-02-19T13:41:55;33.87;;;0.90;;
1703;SDS011;849;48.780;9.216;2023-02-19T13:44:26;33.77;;;0.80;;
1703;SDS011;849;48.780;9.216;2023-02-19T13:46:55;34.00;;;0.90;;
1703;SDS011;849;48.780;9.216;2023-02-19T13:51:52;33.90;;;0.90;;
1703;SDS011;849;48.780;9.216;2023-02-19T13:54:21;33.90;;;0.80;;
1703;SDS011;849;48.780;9.216;2023-02-19T13:59:49;33.87;;;0.90;;
1703;SDS011;849;48.780;9.216;2023-02-19T14:04:48;33.77;;;0.80;;
1703;SDS011;849;48.780;9.216;2023-02-19T14:20:01;33.77;;;0.87;;
1703;SDS011;849;48.780;9.216;2023-02-19T14:27:57;33.80;;;0.90;;
1703;SDS011;849;48.780;9.216;2023-02-19T14:30:29;34.00;;;0.90;;
1703;SDS011;849;48.780;9.216;2023-02-19T14:32:57;33.80;;;0.83;;
1703;SDS011;849;48.780;9.216;2023-02-19T14:35:26;33.83;;;0.90;;
1703;SDS011;849;48.780;9.216;2023-02-19T14:37:58;33.77;;;0.90;;
1703;SDS011;849;48.780;9.216;2023-02-19T14:40:46;33.83;;;0.80;;
1703;SDS011;849;48.780;9.216;2023-02-19T14:43:13;33.77;;;0.80;;
1703;SDS011;849;48.780;9.216;2023-02-19T14:45:42;33.87;;;0.93;;
1703;SDS011;849;48.780;9.216;2023-02-19T14:48:15;34.40;;;1.00;;
1703;SDS011;849;48.780;9.216;2023-02-19T14:50:48;33.97;;;0.90;;
1703;SDS011;849;48.780;9.216;2023-02-19T14:53:16;33.77;;;0.90;;
1703;SDS011;849;48.780;9.216;2023-02-19T14:55:44;33.80;;;0.90;;
1703;SDS011;849;48.780;9.216;2023-02-19T14:58:12;33.80;;;0.90;;
1703;SDS011;849;48.780;9.216;2023-02-19T15:00:42;33.83;;;0.90;;
1703;SDS011;849;48.780;9.216;2023-02-19T15:06:07;33.87;;;0.80;;
1703;SDS011;849;48.780;9.216;2023-02-19T15:08:42;33.67;;;0.90;;
1703;SDS011;849;48.780;9.216;2023-02-19T15:11:13;33.87;;;1.20;;
1703;SDS011;849;48.780;9.216;2023-02-19T15:13:42;33.83;;;0.90;;
1703;SDS011;849;48.780;9.216;2023-02-19T15:16:16;33.83;;;0.90;;
1703;SDS011;849;48.780;9.216;2023-02-19T15:18:44;34.30;;;1.10;;
1703;SDS011;849;48.780;9.216;2023-02-19T15:21:17;33.90;;;0.90;;
1703;SDS011;849;48.780;9.216;2023-02-19T15:23:53;33.83;;;0.90;;
1703;SDS011;849;48.780;9.216;2023-02-19T15:26:22;33.87;;;0.90;;
1703;SDS011;849;48.780;9.216;2023-02-19T15:28:56;33.90;;;0.80;;
1703;SDS011;849;48.780;9.216;2023-02-19T15:31:26;33.67;;;0.90;;
1703;SDS011;849;48.780;9.216;2023-02-19T15:33:53;33.83;;;0.90;;
1703;SDS011;849;48.780;9.216;2023-02-19T15:36:21;34.10;;;1.13;;
1703;SDS011;849;48.780;9.216;2023-02-19T15:38:56;33.90;;;0.90;;
1703;SDS011;849;48.780;9.216;2023-02-19T15:41:26;34.00;;;0.93;;
1703;SDS011;849;48.780;9.216;2023-02-19T15:44:39;33.87;;;1.00;;
1703;SDS011;849;48.780;9.216;2023-02-19T15:46:57;33.90;;;0.90;;
1703;SDS011;849;48.780;9.216;2023-02-19T15:49:32;33.93;;;0.97;;
1703;SDS011;849;48.780;9.216;2023-02-19T15:52:08;33.97;;;0.90;;
1703;SDS011;849;48.780;9.216;2023-02-19T15:54:46;33.87;;;0.90;;
1703;SDS011;849;48.780;9.216;2023-02-19T15:57:28;33.97;;;0.90;;
1703;SDS011;849;48.780;9.216;2023-02-19T16:00:08;33.87;;;0.90;;
1703;SDS011;849;48.780;9.216;2023-02-19T16:02:38;33.77;;;0.90;;
1703;SDS011;849;48.780;9.216;2023-02-19T16:05:11;33.80;;;0.90;;
1703;SDS011;849;48.780;9.216;2023-02-19T16:08:03;33.63;;;0.90;;
1703;SDS011;849;48.780;9.216;2023-02-19T16:10:34;33.97;;;0.90;;
1703;SDS011;849;48.780;9.216;2023-02-19T16:13:01;33.87;;;1.00;;
1703;SDS011;849;48.780;9.216;2023-02-19T16:15:29;33.97;;;1.00;;
1703;SDS011;849;48.780;9.216;2023-02-19T16:17:56;33.77;;;0.90;;
1703;SDS011;849;48.780;9.216;2023-02-19T16:20:25;33.83;;;0.97;;
1703;SDS011;849;48.780;9.216;2023-02-19T16:23:00;33.83;;;0.90;;
1703;SDS011;849;48.780;9.216;2023-02-19T16:25:40;33.90;;;1.00;;
1703;SDS011;849;48.780;9.216;2023-02-19T16:28:21;33.70;;;0.93;;
1703;SDS011;849;48.780;9.216;2023-02-19T16:30:58;33.97;;;0.90;;
1703;SDS011;849;48.780;9.216;2023-02-19T16:33:44;34.07;;;0.90;;
1703;SDS011;849;48.780;9.216;2023-02-19T16:42:16;33.97;;;0.90;;
1703;SDS011;849;48.780;9.216;2023-02-19T16:46:48;34.03;;;0.90;;
1703;SDS011;849;48.780;9.216;2023-02-19T16:49:16;33.93;;;0.80;;
1703;SDS011;849;48.780;9.216;2023-02-19T16:51:42;34.00;;;1.00;;
1703;SDS011;849;48.780;9.216;2023-02-19T16:54:08;34.07;;;0.90;;
1703;SDS011;849;48.780;9.216;2023-02-19T16:56:34;34.00;;;0.90;;
1703;SDS011;849;48.780;9.216;2023-02-19T16:59:00;33.63;;;0.80;;
1703;SDS011;849;48.780;9.216;2023-02-19T17:01:26;34.10;;;0.90;;
1703;SDS011;849;48.780;9.216;2023-02-19T17:03:53;33.87;;;0.90;;
1703;SDS011;849;48.780;9.216;2023-02-19T17:06:24;34.07;;;0.90;;
1703;SDS011;849;48.780;9.216;2023-02-19T17:08:50;34.03;;;0.80;;
1703;SDS011;849;48.780;9.216;2023-02-19T17:11:17;34.07;;;0.90;;
1703;SDS011;849;48.780;9.216;2023-02-19T17:13:43;34.03;;;0.90;;
1703;SDS011;849;48.780;9.216;2023-02-19T17:16:15;34.13;;;0.80;;
1703;SDS011;849;48.780;9.216;2023-02-19T17:18:46;33.97;;;0.90;;
1703;SDS011;849;48.780;9.216;2023-02-19T17:21:14;34.17;;;0.80;;
1703;SDS011;849;48.780;9.216;2023-02-19T17:23:41;34.10;;;0.80;;
1703;SDS011;849;48.780;9.216;2023-02-19T17:26:08;34.20;;;0.80;;
1703;SDS011;849;48.780;9.216;2023-02-19T17:28:38;34.03;;;0.80;;
1703;SDS011;849;48.780;9.216;2023-02-19T17:31:04;34.30;;;0.90;;
1703;SDS011;849;48.780;9.216;2023-02-19T17:33:29;34.13;;;0.80;;
1703;SDS011;849;48.780;9.216;2023-02-19T17:35:55;34.20;;;0.90;;
1703;SDS011;849;48.780;9.216;2023-02-19T17:38:21;34.00;;;0.90;;
1703;SDS011;849;48.780;9.216;2023-02-19T17:40:46;34.07;;;0.90;;
1703;SDS011;849;48.780;9.216;2023-02-19T17:43:12;34.37;;;0.90;;
1703;SDS011;849;48.780;9.216;2023-02-19T17:45:38;34.07;;;0.90;;
1703;SDS011;849;48.780;9.216;2023-02-19T17:48:04;34.17;;;0.90;;